createdAt,value
2022-08-30T00:01:00.152Z,16.91
2022-08-30T00:03:27.471Z,16.86
2022-08-30T00:05:56.405Z,16.59
2022-08-30T00:08:23.338Z,16.58
2022-08-30T00:10:51.185Z,16.57
2022-08-30T00:13:19.626Z,16.41
2022-08-30T00:15:47.277Z,16.35
2022-08-30T00:18:15.692Z,16.40
2022-08-30T00:20:42.640Z,16.28
2022-08-30T00:23:09.395Z,16.23
2022-08-30T00:25:35.958Z,16.16
2022-08-30T00:28:02.699Z,16.29
2022-08-30T00:30:29.633Z,16.12
2022-08-30T00:32:56.051Z,16.11
2022-08-30T00:35:23.120Z,16.06
2022-08-30T00:37:50.790Z,15.96
2022-08-30T00:40:20.393Z,15.76
2022-08-30T00:42:59.263Z,15.71
2022-08-30T00:45:40.591Z,15.79
2022-08-30T00:48:07.756Z,15.96
2022-08-30T00:50:39.302Z,15.92
2022-08-30T00:53:10.549Z,15.69
2022-08-30T00:55:37.262Z,15.73
2022-08-30T00:58:09.903Z,15.49
2022-08-30T01:00:36.813Z,15.59
2022-08-30T01:03:04.101Z,15.56
2022-08-30T01:05:30.827Z,15.50
2022-08-30T01:07:57.284Z,15.48
2022-08-30T01:10:23.890Z,15.57
2022-08-30T01:12:50.380Z,15.64
2022-08-30T01:15:16.848Z,15.70
2022-08-30T01:17:47.490Z,15.80
2022-08-30T01:20:24.126Z,15.53
2022-08-30T01:22:50.488Z,15.40
2022-08-30T01:25:22.180Z,15.44
2022-08-30T01:28:19.231Z,15.68
2022-08-30T01:30:46.309Z,15.60
2022-08-30T01:33:13.624Z,15.48
2022-08-30T01:35:54.225Z,15.46
2022-08-30T01:38:23.744Z,15.49
2022-08-30T01:40:50.757Z,15.45
2022-08-30T01:43:18.476Z,15.35
2022-08-30T01:45:45.201Z,15.45
2022-08-30T01:48:12.790Z,15.54
2022-08-30T01:50:41.293Z,15.25
2022-08-30T01:53:13.285Z,15.30
2022-08-30T01:55:40.278Z,15.11
2022-08-30T01:58:06.708Z,15.15
2022-08-30T02:00:33.328Z,14.94
2022-08-30T02:02:59.889Z,15.10
2022-08-30T02:05:26.437Z,14.80
2022-08-30T02:07:53.752Z,14.65
2022-08-30T02:10:20.945Z,14.74
2022-08-30T02:12:47.552Z,14.70
2022-08-30T02:15:14.229Z,14.90
2022-08-30T02:17:42.311Z,14.99
2022-08-30T02:20:09.481Z,14.99
2022-08-30T02:22:36.064Z,15.03
2022-08-30T02:25:04.729Z,14.90
2022-08-30T02:27:31.870Z,14.61
2022-08-30T02:29:58.292Z,14.88
2022-08-30T02:32:24.728Z,14.57
2022-08-30T02:34:51.148Z,14.49
2022-08-30T02:37:17.825Z,14.65
2022-08-30T02:39:44.283Z,14.57
2022-08-30T02:42:10.684Z,14.50
2022-08-30T02:44:37.167Z,14.36
2022-08-30T02:47:03.735Z,14.28
2022-08-30T02:49:33.669Z,14.20
2022-08-30T02:52:01.959Z,14.28
2022-08-30T02:54:28.557Z,14.42
2022-08-30T02:56:56.120Z,14.44
2022-08-30T02:59:22.504Z,14.38
2022-08-30T03:01:49.066Z,14.30
2022-08-30T03:04:15.861Z,14.30
2022-08-30T03:06:42.271Z,14.43
2022-08-30T03:09:08.712Z,14.07
2022-08-30T03:11:35.184Z,14.07
2022-08-30T03:14:01.739Z,13.96
2022-08-30T03:16:28.257Z,14.04
2022-08-30T03:18:54.906Z,14.08
2022-08-30T03:21:21.573Z,13.89
2022-08-30T03:23:48.051Z,13.85
2022-08-30T03:26:14.973Z,13.83
2022-08-30T03:28:42.760Z,13.91
2022-08-30T03:31:09.886Z,13.93
2022-08-30T03:33:36.777Z,14.00
2022-08-30T03:36:04.052Z,14.01
2022-08-30T03:38:31.095Z,14.14
2022-08-30T03:40:57.618Z,13.82
2022-08-30T03:43:25.305Z,13.80
2022-08-30T03:45:52.491Z,13.78
2022-08-30T03:48:18.989Z,13.73
2022-08-30T03:50:45.400Z,13.66
2022-08-30T03:53:11.809Z,13.68
2022-08-30T03:55:38.247Z,13.49
2022-08-30T03:58:04.915Z,13.56
2022-08-30T04:00:31.414Z,13.59
2022-08-30T04:02:57.785Z,13.72
2022-08-30T04:05:24.244Z,13.75
2022-08-30T04:07:50.745Z,13.60
2022-08-30T04:10:17.309Z,13.63
2022-08-30T04:12:48.936Z,13.70
2022-08-30T04:15:17.716Z,13.73
2022-08-30T04:17:44.256Z,13.50
2022-08-30T04:20:10.817Z,13.43
2022-08-30T04:22:37.365Z,13.38
2022-08-30T04:25:05.051Z,13.39
2022-08-30T04:27:32.301Z,13.55
2022-08-30T04:30:00.160Z,13.53
2022-08-30T04:32:27.065Z,14.10
2022-08-30T04:34:59.935Z,13.99
2022-08-30T04:37:26.696Z,13.84
2022-08-30T04:39:57.747Z,13.81
2022-08-30T04:42:24.701Z,13.70
2022-08-30T04:44:51.453Z,13.52
2022-08-30T04:47:18.565Z,13.56
2022-08-30T04:49:45.064Z,13.70
2022-08-30T04:52:11.586Z,13.53
2022-08-30T04:54:38.344Z,13.67
2022-08-30T04:57:06.119Z,13.48
2022-08-30T04:59:33.327Z,13.52
2022-08-30T05:02:00.425Z,13.38
2022-08-30T05:04:26.939Z,13.59
2022-08-30T05:06:53.854Z,13.57
2022-08-30T05:09:21.534Z,13.47
2022-08-30T05:11:48.342Z,13.57
2022-08-30T05:14:14.987Z,13.63
2022-08-30T05:16:41.779Z,13.86
2022-08-30T05:19:08.417Z,14.17
2022-08-30T05:21:34.882Z,14.54
2022-08-30T05:24:01.494Z,15.31
2022-08-30T05:26:33.925Z,15.79
2022-08-30T05:29:00.903Z,16.26
2022-08-30T05:31:35.296Z,16.51
2022-08-30T05:34:02.492Z,16.70
2022-08-30T05:36:31.754Z,16.87
2022-08-30T05:38:58.868Z,17.26
2022-08-30T05:41:26.399Z,17.36
2022-08-30T05:43:55.172Z,17.55
2022-08-30T05:46:22.112Z,17.69
2022-08-30T05:48:49.407Z,17.76
2022-08-30T05:51:18.185Z,17.64
2022-08-30T05:53:45.723Z,17.70
2022-08-30T05:56:16.098Z,17.65
2022-08-30T05:58:43.474Z,17.53
2022-08-30T06:01:40.643Z,17.30
2022-08-30T06:04:11.911Z,17.22
2022-08-30T06:06:40.093Z,17.23
2022-08-30T06:09:08.667Z,17.23
2022-08-30T06:11:35.548Z,17.22
2022-08-30T06:14:03.228Z,17.20
2022-08-30T06:16:30.031Z,17.36
2022-08-30T06:18:58.112Z,17.34
2022-08-30T06:21:27.938Z,17.33
2022-08-30T06:23:55.870Z,17.37
2022-08-30T06:26:22.770Z,17.60
2022-08-30T06:28:50.137Z,17.73
2022-08-30T06:31:19.979Z,17.98
2022-08-30T06:33:47.295Z,17.81
2022-08-30T06:36:16.665Z,17.93
2022-08-30T06:38:43.397Z,18.01
2022-08-30T06:41:15.832Z,18.55
2022-08-30T06:43:46.745Z,18.55
2022-08-30T06:46:19.846Z,18.46
2022-08-30T06:48:48.353Z,18.53
2022-08-30T06:51:19.159Z,18.85
2022-08-30T06:53:46.031Z,18.82
2022-08-30T06:56:16.365Z,18.87
2022-08-30T06:58:43.788Z,19.10
2022-08-30T07:01:19.893Z,18.94
2022-08-30T07:03:46.757Z,18.71
2022-08-30T07:06:14.805Z,18.99
2022-08-30T07:08:41.267Z,19.03
2022-08-30T07:11:08.322Z,19.57
2022-08-30T07:13:36.686Z,19.45
2022-08-30T07:16:10.718Z,19.51
2022-08-30T07:18:54.780Z,19.75
2022-08-30T07:21:28.016Z,20.16
2022-08-30T07:23:56.807Z,20.27
2022-08-30T07:26:27.058Z,20.38
2022-08-30T07:28:55.974Z,20.28
2022-08-30T07:31:24.477Z,20.53
2022-08-30T07:33:51.840Z,20.99
2022-08-30T07:36:18.450Z,20.89
2022-08-30T07:38:46.707Z,20.90
2022-08-30T07:41:27.568Z,21.15
2022-08-30T07:43:54.620Z,21.74
2022-08-30T07:46:21.557Z,21.73
2022-08-30T07:48:48.392Z,21.55
2022-08-30T07:51:18.449Z,22.01
2022-08-30T07:53:44.996Z,22.28
2022-08-30T07:56:11.957Z,22.12
2022-08-30T07:58:39.656Z,22.30
2022-08-30T08:01:08.388Z,22.61
2022-08-30T08:03:35.318Z,22.65
2022-08-30T08:06:05.081Z,22.89
2022-08-30T08:08:32.133Z,22.99
2022-08-30T08:10:58.844Z,23.18
2022-08-30T08:13:27.949Z,22.94
2022-08-30T08:15:55.276Z,23.03
2022-08-30T08:18:21.863Z,22.87
2022-08-30T08:20:48.260Z,23.08
2022-08-30T08:23:15.563Z,23.18
2022-08-30T08:25:42.148Z,23.34
2022-08-30T08:28:08.678Z,23.22
2022-08-30T08:30:37.616Z,23.35
2022-08-30T08:33:05.323Z,23.37
2022-08-30T08:35:32.399Z,23.55
2022-08-30T08:37:59.267Z,23.62
2022-08-30T08:40:26.938Z,23.78
2022-08-30T08:43:10.663Z,23.91
2022-08-30T08:46:05.698Z,23.72
2022-08-30T08:49:01.664Z,24.08
2022-08-30T08:51:51.105Z,24.13
2022-08-30T08:54:42.885Z,24.09
2022-08-30T08:57:13.872Z,24.45
2022-08-30T08:59:44.423Z,24.34
2022-08-30T09:02:19.685Z,24.54
2022-08-30T09:04:46.461Z,24.62
2022-08-30T09:07:22.475Z,24.77
2022-08-30T09:09:49.117Z,24.92
2022-08-30T09:12:15.735Z,25.21
2022-08-30T09:15:20.026Z,25.27
2022-08-30T09:18:05.595Z,25.16
2022-08-30T09:20:50.024Z,25.43
2022-08-30T09:23:16.396Z,25.60
2022-08-30T09:25:54.603Z,25.69
2022-08-30T09:28:43.264Z,25.61
2022-08-30T09:31:19.184Z,25.55
2022-08-30T09:34:05.551Z,25.59
2022-08-30T09:36:42.001Z,25.66
2022-08-30T09:39:17.611Z,25.77
2022-08-30T09:41:50.016Z,25.74
2022-08-30T09:44:23.509Z,26.14
2022-08-30T09:46:57.221Z,25.92
2022-08-30T09:49:35.637Z,25.71
2022-08-30T09:52:02.125Z,25.89
2022-08-30T09:54:38.584Z,25.97
2022-08-30T09:57:34.130Z,26.45
2022-08-30T10:00:15.362Z,26.30
2022-08-30T10:03:14.385Z,26.61
2022-08-30T10:05:55.070Z,26.64
2022-08-30T10:08:42.383Z,26.83
2022-08-30T10:11:18.941Z,26.77
2022-08-30T10:13:53.977Z,26.95
2022-08-30T10:16:26.291Z,26.83
2022-08-30T10:18:56.794Z,27.13
2022-08-30T10:21:31.517Z,26.90
2022-08-30T10:24:02.981Z,27.34
2022-08-30T10:26:29.971Z,27.28
2022-08-30T10:29:02.483Z,27.16
2022-08-30T10:31:48.752Z,27.05
2022-08-30T10:34:20.932Z,27.11
2022-08-30T10:37:03.127Z,27.14
2022-08-30T10:39:35.970Z,27.33
2022-08-30T10:42:11.440Z,26.95
2022-08-30T10:44:44.453Z,27.25
2022-08-30T10:47:32.883Z,27.47
2022-08-30T10:50:20.164Z,27.32
2022-08-30T10:53:13.092Z,27.74
2022-08-30T10:55:55.610Z,27.33
2022-08-30T10:58:22.577Z,27.61
2022-08-30T11:01:14.053Z,27.49
2022-08-30T11:03:49.577Z,27.71
2022-08-30T11:06:19.929Z,28.07
2022-08-30T11:08:58.575Z,27.75
2022-08-30T11:11:56.705Z,27.57
2022-08-30T11:14:25.397Z,27.77
2022-08-30T11:16:54.611Z,28.03
2022-08-30T11:19:26.575Z,27.88
2022-08-30T11:22:24.288Z,27.94
2022-08-30T11:25:14.355Z,28.43
2022-08-30T11:27:58.752Z,28.67
2022-08-30T11:30:26.909Z,28.71
2022-08-30T11:33:03.034Z,28.30
2022-08-30T11:35:48.455Z,28.48
2022-08-30T11:38:27.242Z,28.92
2022-08-30T11:40:57.709Z,28.48
2022-08-30T11:43:44.663Z,28.59
2022-08-30T11:46:26.380Z,28.52
2022-08-30T11:49:00.360Z,28.51
2022-08-30T11:52:08.537Z,28.60
2022-08-30T11:54:55.860Z,29.00
2022-08-30T11:57:25.361Z,28.66
2022-08-30T12:00:09.445Z,28.69
2022-08-30T12:02:47.301Z,28.55
2022-08-30T12:05:35.561Z,28.55
2022-08-30T12:08:27.972Z,28.70
2022-08-30T12:11:20.024Z,28.92
2022-08-30T12:13:46.482Z,28.88
2022-08-30T12:16:35.081Z,29.22
2022-08-30T12:19:18.169Z,28.89
2022-08-30T12:21:55.940Z,29.00
2022-08-30T12:24:26.291Z,28.87
2022-08-30T12:26:53.358Z,29.04
2022-08-30T12:29:28.201Z,29.07
2022-08-30T12:32:00.913Z,29.13
2022-08-30T12:34:50.200Z,28.94
2022-08-30T12:37:22.587Z,28.95
2022-08-30T12:40:01.943Z,28.90
2022-08-30T12:42:31.756Z,28.78
2022-08-30T12:45:04.407Z,29.29
2022-08-30T12:47:52.700Z,29.20
2022-08-30T12:50:24.307Z,29.44
2022-08-30T12:53:02.877Z,29.18
2022-08-30T12:55:36.167Z,29.54
2022-08-30T12:58:09.414Z,29.27
2022-08-30T13:00:44.688Z,29.36
2022-08-30T13:03:24.174Z,29.32
2022-08-30T13:05:53.216Z,29.38
2022-08-30T13:08:21.484Z,29.48
2022-08-30T13:11:08.328Z,29.51
2022-08-30T13:13:37.616Z,29.37
2022-08-30T13:16:12.796Z,29.45
2022-08-30T13:18:39.851Z,29.59
2022-08-30T13:21:28.986Z,29.85
2022-08-30T13:23:58.689Z,29.52
2022-08-30T13:26:27.485Z,29.53
2022-08-30T13:28:59.003Z,29.42
2022-08-30T13:31:27.873Z,29.31
2022-08-30T13:33:55.464Z,29.78
2022-08-30T13:36:28.212Z,29.43
2022-08-30T13:38:55.358Z,29.49
2022-08-30T13:41:21.982Z,29.51
2022-08-30T13:46:36.408Z,29.33
2022-08-30T13:49:06.518Z,29.32
2022-08-30T13:51:33.351Z,29.30
2022-08-30T13:54:02.421Z,29.58
2022-08-30T13:56:32.030Z,29.64
2022-08-30T13:58:59.738Z,29.76
2022-08-30T14:01:30.168Z,29.67
2022-08-30T14:04:17.031Z,29.88
2022-08-30T14:09:30.194Z,30.05
2022-08-30T14:11:57.020Z,29.83
2022-08-30T14:14:39.302Z,30.07
2022-08-30T14:17:08.979Z,29.69
2022-08-30T14:19:35.684Z,29.79
2022-08-30T14:22:02.174Z,29.59
2022-08-30T14:24:29.217Z,29.87
2022-08-30T14:26:55.881Z,30.00
2022-08-30T14:29:26.058Z,30.00
2022-08-30T14:31:52.870Z,29.56
2022-08-30T14:34:21.231Z,29.83
2022-08-30T14:36:47.631Z,29.78
2022-08-30T14:39:17.865Z,29.88
2022-08-30T14:41:50.385Z,29.88
2022-08-30T14:44:18.426Z,29.62
2022-08-30T14:46:45.294Z,29.86
2022-08-30T14:49:13.248Z,29.57
2022-08-30T14:51:40.713Z,29.76
2022-08-30T14:54:07.920Z,29.61
2022-08-30T14:56:34.643Z,29.73
2022-08-30T14:59:02.869Z,29.49
2022-08-30T15:01:31.172Z,29.49
2022-08-30T15:03:58.448Z,29.58
2022-08-30T15:06:26.489Z,29.41
2022-08-30T15:08:53.390Z,29.34
2022-08-30T15:11:21.510Z,29.41
2022-08-30T15:13:48.402Z,29.30
2022-08-30T15:16:21.401Z,29.20
2022-08-30T15:18:48.784Z,29.25
2022-08-30T15:21:32.553Z,29.07
2022-08-30T15:24:02.415Z,29.31
2022-08-30T15:26:29.284Z,29.25
2022-08-30T15:28:56.678Z,29.31
2022-08-30T15:31:33.811Z,29.21
2022-08-30T15:34:01.166Z,29.26
2022-08-30T15:36:29.073Z,29.40
2022-08-30T15:38:56.255Z,29.30
2022-08-30T15:41:23.429Z,29.40
2022-08-30T15:43:50.300Z,29.45
2022-08-30T15:46:35.227Z,29.47
2022-08-30T15:49:05.282Z,29.34
2022-08-30T15:51:41.033Z,29.37
2022-08-30T15:54:13.536Z,29.32
2022-08-30T15:56:41.910Z,29.29
2022-08-30T15:59:09.346Z,29.26
2022-08-30T16:01:36.581Z,29.12
2022-08-30T16:04:03.980Z,29.09
2022-08-30T16:06:35.180Z,29.32
2022-08-30T16:09:01.832Z,29.10
2022-08-30T16:11:28.239Z,29.08
2022-08-30T16:13:57.799Z,29.06
2022-08-30T16:16:25.082Z,29.05
2022-08-30T16:18:54.243Z,29.16
2022-08-30T16:21:25.473Z,29.04
2022-08-30T16:23:55.111Z,29.05
2022-08-30T16:26:22.133Z,29.11
2022-08-30T16:28:48.677Z,28.95
2022-08-30T16:31:16.918Z,29.00
2022-08-30T16:33:44.867Z,29.06
2022-08-30T16:36:12.001Z,28.98
2022-08-30T16:38:39.553Z,28.97
2022-08-30T16:41:09.781Z,28.95
2022-08-30T16:43:36.890Z,28.87
2022-08-30T16:46:06.342Z,28.91
2022-08-30T16:48:34.067Z,28.82
2022-08-30T16:51:11.493Z,28.91
2022-08-30T16:53:38.963Z,28.93
2022-08-30T16:56:18.832Z,28.78
2022-08-30T16:58:46.870Z,28.85
2022-08-30T17:01:14.670Z,28.94
2022-08-30T17:03:43.868Z,28.83
2022-08-30T17:06:10.493Z,28.87
2022-08-30T17:08:37.236Z,28.84
2022-08-30T17:11:04.165Z,28.60
2022-08-30T17:13:31.601Z,28.55
2022-08-30T17:15:59.742Z,28.58
2022-08-30T17:18:26.305Z,28.67
2022-08-30T17:20:52.752Z,28.61
2022-08-30T17:23:19.274Z,28.46
2022-08-30T17:25:45.750Z,28.56
2022-08-30T17:28:12.345Z,28.49
2022-08-30T17:30:39.004Z,28.43
2022-08-30T17:33:08.172Z,28.55
2022-08-30T17:35:35.036Z,28.31
2022-08-30T17:38:01.581Z,28.03
2022-08-30T17:40:28.059Z,28.03
2022-08-30T17:42:54.690Z,27.76
2022-08-30T17:45:21.245Z,27.77
2022-08-30T17:47:48.685Z,27.74
2022-08-30T17:50:16.206Z,27.53
2022-08-30T17:52:46.192Z,27.55
2022-08-30T17:55:13.796Z,27.62
2022-08-30T17:57:41.893Z,27.65
2022-08-30T18:00:11.751Z,27.75
2022-08-30T18:02:42.684Z,27.55
2022-08-30T18:05:10.515Z,27.47
2022-08-30T18:07:37.017Z,27.10
2022-08-30T18:10:05.369Z,27.13
2022-08-30T18:12:33.801Z,27.09
2022-08-30T18:15:01.053Z,27.01
2022-08-30T18:17:39.101Z,26.84
2022-08-30T18:20:07.730Z,26.63
2022-08-30T18:22:34.180Z,26.73
2022-08-30T18:25:02.702Z,26.61
2022-08-30T18:27:29.400Z,26.41
2022-08-30T18:29:55.830Z,26.16
2022-08-30T18:32:22.279Z,26.15
2022-08-30T18:35:02.504Z,26.02
2022-08-30T18:37:28.965Z,26.11
2022-08-30T18:39:55.407Z,26.01
2022-08-30T18:42:21.836Z,25.87
2022-08-30T18:44:48.389Z,25.92
2022-08-30T18:47:14.796Z,25.89
2022-08-30T18:49:41.268Z,25.92
2022-08-30T18:52:09.829Z,25.75
2022-08-30T18:54:41.702Z,25.61
2022-08-30T18:57:09.860Z,25.54
2022-08-30T18:59:37.084Z,25.52
2022-08-30T19:02:05.468Z,25.47
2022-08-30T19:04:35.796Z,25.53
2022-08-30T19:07:03.995Z,25.43
2022-08-30T19:09:30.526Z,25.31
2022-08-30T19:11:56.980Z,25.28
2022-08-30T19:14:23.445Z,25.25
2022-08-30T19:16:54.729Z,25.34
2022-08-30T19:19:21.516Z,25.39
2022-08-30T19:21:48.861Z,25.48
2022-08-30T19:24:17.797Z,25.48
2022-08-30T19:26:46.694Z,25.41
2022-08-30T19:29:14.626Z,25.32
2022-08-30T19:31:43.600Z,25.26
2022-08-30T19:34:11.391Z,25.33
2022-08-30T19:36:37.901Z,25.28
2022-08-30T19:39:04.420Z,25.34
2022-08-30T19:41:31.314Z,25.39
2022-08-30T19:43:57.959Z,25.24
2022-08-30T19:46:27.705Z,25.38
2022-08-30T19:48:54.141Z,25.33
2022-08-30T19:51:20.616Z,25.24
2022-08-30T19:53:48.462Z,25.31
2022-08-30T19:56:14.892Z,25.36
2022-08-30T19:58:41.463Z,25.39
2022-08-30T20:01:11.988Z,25.23
2022-08-30T20:03:54.444Z,25.25
2022-08-30T20:06:23.733Z,25.26
2022-08-30T20:08:50.187Z,25.17
2022-08-30T20:11:20.793Z,25.03
2022-08-30T20:13:48.340Z,24.92
2022-08-30T20:16:15.691Z,25.15
2022-08-30T20:18:43.449Z,24.90
2022-08-30T20:21:13.870Z,24.87
2022-08-30T20:23:41.934Z,24.74
2022-08-30T20:26:12.916Z,24.68
2022-08-30T20:28:39.986Z,24.57
2022-08-30T20:31:07.955Z,24.59
2022-08-30T20:33:37.529Z,24.53
2022-08-30T20:36:08.461Z,24.49
2022-08-30T20:38:35.155Z,24.56
2022-08-30T20:41:08.012Z,24.46
2022-08-30T20:43:34.423Z,24.59
2022-08-30T20:46:07.321Z,24.44
2022-08-30T20:48:33.875Z,24.42
2022-08-30T20:51:03.811Z,24.46
2022-08-30T20:53:30.795Z,24.48
2022-08-30T20:55:57.235Z,24.40
2022-08-30T20:58:23.679Z,24.26
2022-08-30T21:00:53.437Z,24.30
2022-08-30T21:03:27.637Z,24.31
2022-08-30T21:05:55.755Z,24.22
2022-08-30T21:08:22.326Z,24.22
2022-08-30T21:10:48.924Z,24.24
2022-08-30T21:13:15.383Z,24.18
2022-08-30T21:15:45.775Z,24.35
2022-08-30T21:18:15.573Z,24.15
2022-08-30T21:20:42.349Z,24.09
2022-08-30T21:23:09.855Z,24.04
2022-08-30T21:25:41.007Z,24.06
2022-08-30T21:28:08.262Z,24.18
2022-08-30T21:30:36.350Z,23.94
2022-08-30T21:33:06.997Z,23.93
2022-08-30T21:35:52.994Z,23.90
2022-08-30T21:38:20.016Z,23.93
2022-08-30T21:40:48.373Z,23.81
2022-08-30T21:43:15.956Z,23.85
2022-08-30T21:45:43.954Z,23.85
2022-08-30T21:48:11.601Z,23.79
2022-08-30T21:50:39.909Z,23.82
2022-08-30T21:53:06.421Z,23.85
2022-08-30T21:55:33.007Z,23.88
2022-08-30T21:57:59.509Z,23.88
2022-08-30T22:00:26.182Z,23.86
2022-08-30T22:02:53.146Z,23.85
2022-08-30T22:05:20.231Z,23.85
2022-08-30T22:07:46.659Z,23.85
2022-08-30T22:10:13.618Z,23.81
2022-08-30T22:12:41.390Z,23.85
2022-08-30T22:15:09.308Z,23.79
2022-08-30T22:17:35.712Z,23.79
2022-08-30T22:20:02.442Z,23.83
2022-08-30T22:22:28.907Z,23.74
2022-08-30T22:24:55.302Z,23.75
2022-08-30T22:27:21.779Z,23.65
2022-08-30T22:29:48.284Z,23.62
2022-08-30T22:32:14.905Z,23.65
2022-08-30T22:34:45.347Z,23.58
2022-08-30T22:37:11.834Z,23.51
2022-08-30T22:39:38.267Z,23.57
2022-08-30T22:42:05.165Z,23.56
2022-08-30T22:44:32.133Z,23.58
2022-08-30T22:46:59.906Z,23.47
2022-08-30T22:49:26.293Z,23.52
2022-08-30T22:51:52.795Z,23.43
2022-08-30T22:54:19.327Z,23.41
2022-08-30T22:56:46.271Z,23.42
2022-08-30T22:59:12.696Z,23.45
2022-08-30T23:01:43.136Z,23.35
2022-08-30T23:04:11.679Z,23.44
2022-08-30T23:06:38.279Z,23.73
2022-08-30T23:09:06.032Z,23.87
2022-08-30T23:11:33.325Z,23.59
2022-08-30T23:14:01.045Z,23.67
2022-08-30T23:16:27.562Z,23.71
2022-08-30T23:18:54.171Z,23.50
2022-08-30T23:21:24.457Z,23.44
2022-08-30T23:24:10.710Z,23.30
2022-08-30T23:26:56.888Z,23.28
2022-08-30T23:29:42.205Z,23.21
2022-08-30T23:32:27.524Z,23.12
2022-08-30T23:35:12.873Z,23.06
2022-08-30T23:37:58.128Z,23.01
2022-08-30T23:40:47.480Z,22.91
2022-08-30T23:43:32.735Z,23.00
2022-08-30T23:46:19.402Z,22.93
2022-08-30T23:49:05.984Z,23.05
2022-08-30T23:51:51.882Z,23.01
2022-08-30T23:54:37.082Z,23.02
2022-08-30T23:57:23.370Z,23.10
